createdAt,value
2022-09-20T00:01:21.933Z,3.63
2022-09-20T00:03:54.875Z,5.28
2022-09-20T00:06:25.179Z,5.78
2022-09-20T00:08:53.261Z,5.60
2022-09-20T00:11:23.364Z,3.58
2022-09-20T00:13:53.658Z,4.30
2022-09-20T00:16:24.199Z,3.70
2022-09-20T00:18:53.589Z,3.30
2022-09-20T00:21:23.632Z,3.30
2022-09-20T00:23:52.686Z,4.50
2022-09-20T00:26:20.863Z,3.85
2022-09-20T00:28:48.876Z,4.38
2022-09-20T00:31:16.485Z,4.25
2022-09-20T00:34:02.279Z,4.90
2022-09-20T00:36:30.011Z,4.15
2022-09-20T00:39:04.401Z,4.10
2022-09-20T00:41:33.079Z,3.60
2022-09-20T00:44:01.464Z,3.20
2022-09-20T00:46:40.762Z,3.08
2022-09-20T00:49:19.514Z,3.17
2022-09-20T00:51:51.596Z,3.00
2022-09-20T00:54:22.090Z,3.10
2022-09-20T00:56:50.022Z,2.92
2022-09-20T00:59:25.811Z,3.40
2022-09-20T01:02:03.428Z,3.20
2022-09-20T01:04:31.040Z,3.30
2022-09-20T01:07:03.025Z,3.08
2022-09-20T01:09:30.471Z,3.65
2022-09-20T01:12:02.620Z,3.00
2022-09-20T01:14:30.696Z,3.33
2022-09-20T01:17:02.534Z,4.57
2022-09-20T01:19:58.870Z,4.60
2022-09-20T01:22:46.957Z,5.13
2022-09-20T01:25:29.387Z,5.03
2022-09-20T01:27:56.948Z,5.75
2022-09-20T01:30:39.318Z,6.65
2022-09-20T01:33:37.027Z,7.53
2022-09-20T01:36:06.539Z,6.68
2022-09-20T01:38:43.770Z,6.97
2022-09-20T01:41:55.413Z,8.00
2022-09-20T01:44:22.775Z,6.82
2022-09-20T01:47:00.144Z,8.48
2022-09-20T01:49:46.911Z,8.50
2022-09-20T01:52:37.483Z,6.95
2022-09-20T01:55:31.041Z,7.30
2022-09-20T01:58:10.407Z,5.63
2022-09-20T02:00:52.951Z,5.13
2022-09-20T02:03:33.870Z,5.32
2022-09-20T02:06:16.356Z,5.40
2022-09-20T02:09:06.269Z,4.97
2022-09-20T02:12:04.175Z,5.57
2022-09-20T02:14:52.788Z,4.78
2022-09-20T02:17:34.941Z,4.72
2022-09-20T02:20:15.896Z,4.97
2022-09-20T02:23:20.815Z,4.47
2022-09-20T02:26:12.094Z,4.82
2022-09-20T02:29:13.610Z,4.78
2022-09-20T02:32:29.055Z,4.72
2022-09-20T02:35:17.178Z,4.78
2022-09-20T02:38:14.292Z,4.75
2022-09-20T02:41:04.546Z,3.67
2022-09-20T02:43:45.363Z,3.55
2022-09-20T02:46:29.238Z,3.25
2022-09-20T02:49:25.345Z,4.22
2022-09-20T02:51:58.515Z,3.90
2022-09-20T02:55:04.776Z,4.88
2022-09-20T02:58:07.501Z,4.93
2022-09-20T03:00:45.590Z,3.80
2022-09-20T03:03:30.408Z,4.28
2022-09-20T03:06:04.564Z,4.13
2022-09-20T03:08:47.168Z,3.92
2022-09-20T03:11:35.458Z,4.38
2022-09-20T03:14:11.817Z,3.50
2022-09-20T03:16:49.915Z,4.28
2022-09-20T03:19:35.683Z,4.10
2022-09-20T03:22:28.960Z,4.60
2022-09-20T03:25:21.606Z,4.93
2022-09-20T03:28:19.738Z,4.30
2022-09-20T03:30:52.923Z,4.40
2022-09-20T03:36:18.570Z,4.30
2022-09-20T03:39:04.387Z,4.32
2022-09-20T03:41:56.314Z,4.03
2022-09-20T03:44:51.021Z,3.33
2022-09-20T03:47:37.033Z,2.90
2022-09-20T03:50:13.279Z,2.90
2022-09-20T03:53:07.170Z,2.92
2022-09-20T03:55:58.568Z,3.05
2022-09-20T03:58:49.823Z,3.25
2022-09-20T04:01:32.944Z,3.30
2022-09-20T04:04:12.599Z,3.40
2022-09-20T04:07:01.567Z,3.72
2022-09-20T04:09:57.955Z,3.83
2022-09-20T04:12:47.283Z,2.85
2022-09-20T04:15:38.019Z,2.40
2022-09-20T04:18:20.047Z,3.40
2022-09-20T04:20:53.523Z,2.63
2022-09-20T04:23:45.499Z,2.30
2022-09-20T04:29:02.179Z,2.03
2022-09-20T04:31:54.514Z,1.83
2022-09-20T04:35:18.796Z,2.10
2022-09-20T04:37:47.838Z,2.10
2022-09-20T04:40:15.338Z,2.00
2022-09-20T04:42:57.809Z,2.28
2022-09-20T04:45:29.322Z,1.70
2022-09-20T04:48:28.204Z,1.92
2022-09-20T04:51:39.868Z,1.85
2022-09-20T04:54:22.443Z,1.58
2022-09-20T04:57:06.014Z,1.40
2022-09-20T04:59:42.448Z,1.75
2022-09-20T05:02:27.627Z,1.60
2022-09-20T05:05:02.463Z,1.45
2022-09-20T05:07:59.266Z,1.60
2022-09-20T05:10:55.999Z,2.00
2022-09-20T05:13:55.688Z,1.55
2022-09-20T05:16:28.704Z,1.60
2022-09-20T05:19:15.884Z,1.63
2022-09-20T05:22:10.368Z,1.58
2022-09-20T05:24:56.460Z,1.42
2022-09-20T05:27:34.629Z,1.40
2022-09-20T05:30:11.571Z,1.40
2022-09-20T05:33:06.020Z,1.30
2022-09-20T05:35:44.317Z,1.50
2022-09-20T05:38:35.929Z,1.77
2022-09-20T05:41:14.408Z,1.65
2022-09-20T05:43:53.334Z,1.73
2022-09-20T05:46:36.001Z,1.58
2022-09-20T05:49:29.565Z,1.55
2022-09-20T05:52:22.939Z,1.50
2022-09-20T05:55:11.581Z,1.52
2022-09-20T05:58:15.839Z,1.73
2022-09-20T06:00:53.618Z,1.60
2022-09-20T06:03:43.177Z,1.40
2022-09-20T06:06:42.956Z,1.48
2022-09-20T06:09:39.126Z,1.20
2022-09-20T06:12:23.097Z,1.20
2022-09-20T06:15:21.793Z,1.30
2022-09-20T06:18:25.024Z,1.35
2022-09-20T06:21:03.262Z,1.20
2022-09-20T06:23:32.694Z,1.27
2022-09-20T06:26:10.589Z,1.27
2022-09-20T06:28:42.261Z,0.88
2022-09-20T06:31:11.605Z,0.90
2022-09-20T06:34:09.437Z,1.20
2022-09-20T06:36:58.039Z,1.10
2022-09-20T06:40:07.066Z,1.23
2022-09-20T06:42:34.493Z,1.30
2022-09-20T06:45:02.024Z,1.33
2022-09-20T06:47:32.409Z,1.27
2022-09-20T06:50:01.288Z,1.38
2022-09-20T06:52:30.702Z,1.25
2022-09-20T06:54:58.197Z,1.25
2022-09-20T06:57:36.328Z,1.50
2022-09-20T07:00:10.506Z,1.00
2022-09-20T07:02:38.137Z,0.98
2022-09-20T07:05:07.782Z,0.95
2022-09-20T07:07:35.249Z,1.00
2022-09-20T07:10:02.634Z,1.00
2022-09-20T07:12:33.735Z,1.10
2022-09-20T07:15:01.808Z,1.08
2022-09-20T07:17:31.126Z,0.80
2022-09-20T07:19:58.467Z,1.00
2022-09-20T07:22:26.678Z,1.00
2022-09-20T07:24:54.097Z,0.95
2022-09-20T07:27:21.794Z,1.20
2022-09-20T07:29:49.183Z,0.85
2022-09-20T07:32:17.448Z,0.73
2022-09-20T07:34:44.860Z,0.88
2022-09-20T07:37:12.315Z,0.80
2022-09-20T07:39:39.807Z,0.90
2022-09-20T07:42:07.756Z,0.80
2022-09-20T07:44:35.241Z,1.20
2022-09-20T07:47:02.801Z,0.90
2022-09-20T07:49:30.644Z,1.00
2022-09-20T07:51:58.751Z,1.02
2022-09-20T07:54:27.918Z,0.80
2022-09-20T07:56:55.556Z,1.30
2022-09-20T07:59:23.067Z,1.30
2022-09-20T08:01:50.506Z,1.50
2022-09-20T08:04:20.546Z,1.02
2022-09-20T08:06:48.014Z,1.00
2022-09-20T08:09:15.593Z,1.27
2022-09-20T08:11:43.824Z,1.30
2022-09-20T08:14:16.233Z,0.80
2022-09-20T08:19:21.155Z,1.65
2022-09-20T08:21:50.328Z,1.30
2022-09-20T08:24:18.094Z,1.10
2022-09-20T08:26:45.869Z,1.08
2022-09-20T08:29:15.324Z,1.08
2022-09-20T08:31:43.099Z,1.10
2022-09-20T08:34:12.625Z,1.27
2022-09-20T08:36:42.762Z,1.83
2022-09-20T08:42:20.577Z,1.25
2022-09-20T08:45:21.826Z,0.98
2022-09-20T08:48:00.638Z,1.40
2022-09-20T08:50:29.082Z,1.23
2022-09-20T08:53:00.667Z,1.10
2022-09-20T08:55:40.060Z,1.00
2022-09-20T08:58:12.966Z,2.03
2022-09-20T09:03:13.477Z,1.10
2022-09-20T09:11:02.455Z,1.40
2022-09-20T09:13:49.297Z,1.75
2022-09-20T09:16:27.250Z,1.00
2022-09-20T09:18:57.921Z,0.90
2022-09-20T09:21:30.122Z,1.27
2022-09-20T09:24:14.371Z,1.10
2022-09-20T09:26:49.482Z,0.88
2022-09-20T09:29:23.231Z,0.82
2022-09-20T09:31:55.052Z,1.15
2022-09-20T09:34:39.006Z,1.48
2022-09-20T09:37:06.452Z,1.00
2022-09-20T09:39:38.559Z,0.95
2022-09-20T09:42:26.113Z,1.05
2022-09-20T09:44:53.598Z,0.90
2022-09-20T09:47:30.175Z,1.25
2022-09-20T09:50:02.590Z,1.10
2022-09-20T09:52:33.591Z,1.00
2022-09-20T09:55:05.327Z,0.90
2022-09-20T09:58:04.524Z,1.00
2022-09-20T10:00:36.021Z,0.80
2022-09-20T10:03:18.772Z,0.82
2022-09-20T10:05:55.508Z,0.90
2022-09-20T10:08:44.756Z,0.80
2022-09-20T10:11:39.670Z,0.82
2022-09-20T10:14:13.178Z,1.17
2022-09-20T10:17:12.552Z,0.70
2022-09-20T10:19:42.919Z,1.00
2022-09-20T10:23:00.316Z,0.98
2022-09-20T10:25:52.104Z,1.25
2022-09-20T10:28:28.822Z,0.80
2022-09-20T10:31:16.010Z,0.90
2022-09-20T10:33:52.704Z,1.00
2022-09-20T10:36:52.108Z,1.33
2022-09-20T10:39:31.844Z,1.42
2022-09-20T10:42:44.296Z,1.60
2022-09-20T10:45:44.100Z,1.50
2022-09-20T10:48:18.725Z,1.38
2022-09-20T10:50:52.542Z,1.38
2022-09-20T10:53:19.994Z,1.00
2022-09-20T10:56:09.837Z,1.20
2022-09-20T10:58:58.304Z,0.93
2022-09-20T11:01:33.969Z,1.20
2022-09-20T11:04:22.026Z,1.13
2022-09-20T11:07:10.421Z,1.00
2022-09-20T11:09:44.169Z,1.10
2022-09-20T11:12:42.758Z,1.10
2022-09-20T11:15:24.992Z,1.00
2022-09-20T11:17:59.967Z,1.05
2022-09-20T11:20:36.270Z,0.80
2022-09-20T11:23:13.254Z,1.10
2022-09-20T11:25:48.894Z,1.00
2022-09-20T11:28:25.388Z,0.90
2022-09-20T11:31:04.318Z,1.00
2022-09-20T11:33:41.420Z,1.25
2022-09-20T11:36:20.485Z,0.60
2022-09-20T11:38:59.409Z,0.80
2022-09-20T11:41:28.813Z,0.77
2022-09-20T11:44:13.811Z,1.10
2022-09-20T11:46:54.063Z,1.10
2022-09-20T11:49:27.336Z,0.90
2022-09-20T11:52:10.533Z,1.00
2022-09-20T11:55:15.211Z,1.20
2022-09-20T11:57:42.755Z,0.95
2022-09-20T12:00:10.682Z,1.10
2022-09-20T12:02:50.537Z,1.10
2022-09-20T12:05:42.061Z,1.13
2022-09-20T12:08:25.161Z,1.17
2022-09-20T12:11:41.552Z,0.90
2022-09-20T12:14:28.302Z,0.93
2022-09-20T12:16:57.297Z,1.00
2022-09-20T12:19:32.543Z,1.00
2022-09-20T12:21:59.928Z,1.08
2022-09-20T12:24:31.719Z,0.93
2022-09-20T12:27:01.576Z,1.10
2022-09-20T12:29:31.483Z,0.90
2022-09-20T12:32:02.394Z,0.77
2022-09-20T12:34:39.371Z,1.02
2022-09-20T12:37:13.124Z,1.20
2022-09-20T12:39:52.619Z,0.90
2022-09-20T12:42:21.872Z,1.10
2022-09-20T12:45:15.952Z,1.15
2022-09-20T12:47:53.766Z,1.15
2022-09-20T12:50:41.745Z,1.00
2022-09-20T12:53:18.667Z,1.30
2022-09-20T12:56:08.039Z,1.30
2022-09-20T12:58:40.501Z,1.13
2022-09-20T13:01:13.305Z,1.45
2022-09-20T13:03:51.447Z,1.50
2022-09-20T13:06:19.473Z,1.25
2022-09-20T13:09:04.847Z,1.25
2022-09-20T13:11:35.494Z,1.40
2022-09-20T13:14:08.702Z,1.75
2022-09-20T13:16:42.100Z,1.58
2022-09-20T13:19:20.618Z,1.60
2022-09-20T13:22:14.560Z,1.20
2022-09-20T13:24:45.967Z,1.23
2022-09-20T13:27:34.841Z,1.40
2022-09-20T13:30:24.005Z,1.17
2022-09-20T13:32:52.148Z,1.48
2022-09-20T13:35:24.343Z,1.52
2022-09-20T13:37:54.367Z,1.80
2022-09-20T13:40:23.794Z,1.75
2022-09-20T13:43:13.015Z,1.48
2022-09-20T13:45:45.328Z,1.50
2022-09-20T13:48:12.893Z,1.92
2022-09-20T13:50:45.769Z,1.30
2022-09-20T13:53:33.245Z,1.50
2022-09-20T13:56:11.992Z,1.73
2022-09-20T13:58:39.698Z,2.38
2022-09-20T14:01:20.286Z,2.72
2022-09-20T14:03:48.597Z,2.10
2022-09-20T14:06:16.609Z,2.50
2022-09-20T14:08:48.983Z,2.22
2022-09-20T14:11:23.495Z,3.22
2022-09-20T14:13:54.556Z,2.22
2022-09-20T14:16:24.845Z,2.50
2022-09-20T14:18:52.554Z,2.30
2022-09-20T14:21:31.988Z,2.20
2022-09-20T14:24:03.724Z,2.28
2022-09-20T14:26:35.043Z,2.38
2022-09-20T14:29:42.485Z,2.15
2022-09-20T14:32:19.054Z,2.75
2022-09-20T14:34:57.421Z,2.72
2022-09-20T14:37:42.010Z,2.90
2022-09-20T14:40:31.823Z,3.10
2022-09-20T14:43:01.843Z,3.00
2022-09-20T14:45:33.548Z,3.63
2022-09-20T14:48:10.495Z,3.60
2022-09-20T14:50:42.364Z,3.30
2022-09-20T14:53:13.015Z,3.55
2022-09-20T14:55:55.759Z,3.55
2022-09-20T15:01:01.894Z,3.47
2022-09-20T15:03:43.158Z,3.50
2022-09-20T15:06:12.084Z,3.80
2022-09-20T15:08:45.493Z,3.95
2022-09-20T15:11:19.043Z,3.28
2022-09-20T15:13:46.735Z,4.30
2022-09-20T15:16:17.819Z,4.13
2022-09-20T15:18:45.550Z,3.78
2022-09-20T15:21:13.412Z,3.85
2022-09-20T15:23:41.234Z,3.35
2022-09-20T15:26:11.551Z,3.67
2022-09-20T15:28:39.130Z,4.20
2022-09-20T15:31:06.747Z,3.60
2022-09-20T15:33:34.312Z,3.60
2022-09-20T15:36:03.450Z,3.58
2022-09-20T15:38:49.177Z,3.97
2022-09-20T15:41:16.706Z,3.72
2022-09-20T15:43:44.172Z,4.00
2022-09-20T15:46:20.676Z,4.53
2022-09-20T15:48:48.651Z,6.20
2022-09-20T15:51:16.738Z,5.43
2022-09-20T15:53:46.612Z,5.25
2022-09-20T15:56:31.247Z,4.88
2022-09-20T15:59:01.320Z,4.72
2022-09-20T16:01:32.233Z,4.50
2022-09-20T16:04:00.405Z,3.70
2022-09-20T16:06:27.861Z,3.63
2022-09-20T16:08:56.034Z,3.58
2022-09-20T16:11:24.158Z,4.00
2022-09-20T16:13:55.931Z,4.93
2022-09-20T16:16:24.492Z,5.22
2022-09-20T16:19:10.996Z,4.82
2022-09-20T16:21:40.496Z,5.03
2022-09-20T16:24:08.922Z,6.68
2022-09-20T16:26:37.290Z,7.70
2022-09-20T16:29:05.216Z,6.68
2022-09-20T16:31:41.337Z,7.10
2022-09-20T16:34:32.875Z,6.55
2022-09-20T16:37:12.067Z,5.77
2022-09-20T16:39:41.179Z,6.15
2022-09-20T16:42:12.647Z,5.55
2022-09-20T16:44:43.065Z,5.13
2022-09-20T16:47:22.348Z,5.65
2022-09-20T16:49:50.528Z,5.60
2022-09-20T16:52:18.064Z,5.40
2022-09-20T16:54:46.119Z,4.90
2022-09-20T16:57:15.839Z,4.90
2022-09-20T16:59:43.509Z,4.80
2022-09-20T17:02:12.946Z,4.60
2022-09-20T17:04:40.679Z,4.45
2022-09-20T17:07:09.086Z,5.07
2022-09-20T17:09:36.732Z,4.90
2022-09-20T17:12:06.959Z,4.70
2022-09-20T17:14:34.849Z,4.32
2022-09-20T17:17:02.870Z,3.90
2022-09-20T17:19:30.595Z,3.83
2022-09-20T17:21:58.340Z,3.50
2022-09-20T17:24:26.689Z,3.60
2022-09-20T17:26:54.346Z,3.20
2022-09-20T17:29:22.054Z,3.85
2022-09-20T17:31:56.789Z,3.97
2022-09-20T17:34:28.274Z,4.47
2022-09-20T17:36:55.957Z,4.38
2022-09-20T17:39:24.057Z,4.65
2022-09-20T17:41:51.770Z,4.75
2022-09-20T17:44:19.378Z,4.78
2022-09-20T17:46:49.875Z,3.75
2022-09-20T17:49:19.784Z,4.63
2022-09-20T17:51:49.845Z,4.50
2022-09-20T17:54:17.877Z,4.43
2022-09-20T17:56:48.175Z,4.38
2022-09-20T17:59:17.112Z,4.70
2022-09-20T18:01:46.673Z,4.70
2022-09-20T18:04:14.484Z,4.15
2022-09-20T18:06:50.037Z,3.67
2022-09-20T18:09:20.091Z,3.70
2022-09-20T18:11:53.173Z,4.10
2022-09-20T18:14:26.429Z,4.03
2022-09-20T18:16:56.291Z,3.92
2022-09-20T18:19:23.818Z,3.40
2022-09-20T18:21:51.680Z,3.55
2022-09-20T18:24:19.250Z,3.78
2022-09-20T18:26:46.713Z,3.65
2022-09-20T18:29:18.185Z,3.78
2022-09-20T18:31:50.875Z,3.45
2022-09-20T18:34:23.722Z,3.63
2022-09-20T18:36:56.345Z,3.22
2022-09-20T18:39:26.209Z,3.90
2022-09-20T18:41:53.991Z,3.65
2022-09-20T18:44:22.722Z,3.75
2022-09-20T18:46:55.356Z,3.92
2022-09-20T18:49:23.207Z,4.13
2022-09-20T18:51:50.656Z,4.30
2022-09-20T18:54:19.173Z,4.50
2022-09-20T18:56:49.206Z,4.07
2022-09-20T18:59:22.830Z,4.90
2022-09-20T19:02:34.671Z,4.78
2022-09-20T19:05:38.236Z,4.97
2022-09-20T19:08:25.007Z,4.22
2022-09-20T19:11:01.891Z,4.50
2022-09-20T19:13:47.030Z,4.47
2022-09-20T19:16:20.322Z,4.10
2022-09-20T19:19:08.254Z,3.75
2022-09-20T19:22:04.709Z,3.70
2022-09-20T19:24:56.884Z,3.47
2022-09-20T19:27:26.042Z,3.58
2022-09-20T19:29:54.104Z,3.50
2022-09-20T19:32:26.301Z,3.08
2022-09-20T19:34:56.281Z,2.85
2022-09-20T19:37:45.199Z,2.55
2022-09-20T19:40:21.924Z,3.20
2022-09-20T19:43:23.914Z,3.63
2022-09-20T19:46:21.280Z,2.83
2022-09-20T19:48:56.793Z,3.15
2022-09-20T19:51:26.305Z,3.05
2022-09-20T19:53:55.604Z,3.50
2022-09-20T19:56:28.320Z,4.00
2022-09-20T19:58:56.582Z,4.25
2022-09-20T20:01:25.904Z,4.05
2022-09-20T20:03:55.109Z,4.15
2022-09-20T20:06:31.897Z,4.30
2022-09-20T20:09:23.809Z,4.40
2022-09-20T20:12:26.249Z,4.20
2022-09-20T20:14:59.326Z,3.90
2022-09-20T20:17:57.827Z,3.78
2022-09-20T20:20:37.147Z,3.65
2022-09-20T20:23:27.819Z,3.90
2022-09-20T20:26:03.370Z,3.53
2022-09-20T20:28:30.981Z,3.90
2022-09-20T20:31:02.478Z,4.63
2022-09-20T20:33:31.219Z,4.10
2022-09-20T20:36:00.883Z,4.47
2022-09-20T20:38:29.040Z,4.82
2022-09-20T20:41:04.150Z,4.22
2022-09-20T20:43:33.286Z,4.32
2022-09-20T20:46:01.221Z,4.07
2022-09-20T20:48:29.265Z,4.93
2022-09-20T20:51:10.760Z,3.63
2022-09-20T20:53:49.263Z,3.45
2022-09-20T20:56:21.294Z,3.90
2022-09-20T20:58:49.549Z,3.80
2022-09-20T21:01:22.675Z,3.55
2022-09-20T21:03:52.685Z,3.90
2022-09-20T21:06:21.884Z,4.00
2022-09-20T21:08:49.994Z,3.10
2022-09-20T21:11:26.396Z,3.65
2022-09-20T21:13:55.947Z,3.35
2022-09-20T21:16:26.438Z,3.63
2022-09-20T21:18:54.155Z,3.88
2022-09-20T21:21:26.244Z,3.20
2022-09-20T21:23:57.003Z,3.70
2022-09-20T21:26:25.814Z,3.55
2022-09-20T21:28:55.596Z,3.63
2022-09-20T21:31:24.356Z,3.40
2022-09-20T21:33:52.608Z,3.60
2022-09-20T21:36:22.074Z,3.60
2022-09-20T21:38:49.905Z,4.05
2022-09-20T21:41:29.605Z,3.70
2022-09-20T21:44:00.287Z,3.70
2022-09-20T21:46:32.925Z,3.85
2022-09-20T21:49:04.211Z,3.97
2022-09-20T21:51:36.763Z,4.05
2022-09-20T21:54:04.887Z,3.88
2022-09-20T21:56:34.661Z,3.30
2022-09-20T21:59:04.386Z,3.38
2022-09-20T22:01:35.150Z,3.38
2022-09-20T22:04:11.778Z,3.33
2022-09-20T22:10:09.186Z,3.05
2022-09-20T22:12:37.891Z,2.97
2022-09-20T22:15:06.432Z,2.53
2022-09-20T22:17:33.819Z,3.55
2022-09-20T22:20:01.384Z,3.28
2022-09-20T22:22:30.439Z,3.63
2022-09-20T22:24:57.832Z,3.88
2022-09-20T22:27:25.290Z,3.90
2022-09-20T22:29:52.814Z,3.97
2022-09-20T22:32:20.283Z,3.97
2022-09-20T22:34:47.732Z,4.30
2022-09-20T22:37:15.219Z,3.97
2022-09-20T22:39:42.857Z,4.10
2022-09-20T22:42:10.331Z,3.90
2022-09-20T22:44:37.943Z,4.00
2022-09-20T22:47:05.495Z,4.00
2022-09-20T22:49:32.883Z,3.55
2022-09-20T22:52:00.252Z,3.85
2022-09-20T22:54:27.625Z,4.07
2022-09-20T22:56:55.108Z,4.00
2022-09-20T22:59:22.449Z,3.80
2022-09-20T23:01:49.894Z,4.00
2022-09-20T23:04:19.705Z,3.58
2022-09-20T23:06:55.218Z,3.80
2022-09-20T23:09:25.146Z,3.25
2022-09-20T23:11:52.817Z,3.35
2022-09-20T23:14:21.896Z,3.33
2022-09-20T23:16:49.831Z,3.45
2022-09-20T23:19:17.943Z,3.20
2022-09-20T23:21:45.378Z,3.00
2022-09-20T23:24:15.043Z,2.90
2022-09-20T23:26:43.721Z,3.10
2022-09-20T23:29:13.219Z,2.72
2022-09-20T23:31:45.860Z,2.92
2022-09-20T23:34:14.850Z,3.13
2022-09-20T23:36:43.378Z,2.88
2022-09-20T23:39:12.114Z,3.10
2022-09-20T23:41:41.512Z,3.08
2022-09-20T23:44:10.406Z,3.10
2022-09-20T23:46:38.713Z,3.00
2022-09-20T23:49:07.074Z,3.17
2022-09-20T23:51:35.732Z,3.22
2022-09-20T23:54:03.557Z,3.47
2022-09-20T23:56:31.247Z,3.40
2022-09-20T23:58:58.655Z,2.90
